• Join FlightAware (Why Join?)
  • Login
  • US Flag 
12:46PM EDT


 

Airport Tracker/Info


-or-


 

Live Flight TrackerFlight Track Log ✈ AAL963 ✈ 20-Sep-2013 ✈ KDFW - SBGR / GRU

Flight Track Log - Related Links

Times and Time Zones

All times are in EDT time to prevent confusion due to time zone crossing. See the AAL963 flight status page for this flight to view local times or setup timezone preferences in your user account.

Time Position Orientation Groundspeed Altitude Reporting Facility
EDT Latitude Longitude Course Direction KTS MPH feet Rate Location/Type
09:42PM 32.9220 -97.0290 North 180 207 1,700  Level FlightAware
09:42PM 32.9390 -97.0260 North 191 220 2,300 1,140 Climbing FlightAware
09:43PM 32.9610 -97.0220 North 224 258 2,500 1,080 Climbing FlightAware
09:43PM 32.9780 -97.0190 North 238 274 3,000 2,160 Climbing FlightAware
09:43PM 32.9980 -97.0140 12° North 237 273 3,800 2,040 Climbing FlightAware
09:44PM 33.0110 -97.0070 24° Northeast 241 277 4,100 1,500 Climbing FlightAware
09:44PM 33.0170 -97.0010 40° Northeast 244 281 4,300 2,580 Climbing FlightAware
09:44PM 33.0240 -96.9910 50° Northeast 241 277 4,800 3,000 Climbing FlightAware
09:44PM 33.0270 -96.9820 68° East 242 278 5,100 2,460 Climbing FlightAware
09:44PM 33.0280 -96.9750 80° East 246 283 5,300 1,980 Climbing FlightAware
09:44PM 33.0290 -96.9640 84° East 254 292 5,500 1,260 Climbing FlightAware
09:45PM 33.0260 -96.9410 99° East 273 314 5,900 1,620 Climbing FlightAware
09:45PM 33.0180 -96.9250 121° Southeast 284 327 6,300 2,520 Climbing FlightAware
09:45PM 33.0040 -96.9030 127° Southeast 283 326 7,100 2,760 Climbing FlightAware
09:45PM 32.9880 -96.8790 128° Southeast 274 315 8,100 2,400 Climbing FlightAware
09:46PM 32.9690 -96.8500 128° Southeast 285 328 8,800 2,100 Climbing FlightAware
09:46PM 32.9510 -96.8240 130° Southeast 282 325 9,700 2,160 Climbing FlightAware
09:46PM 32.9390 -96.8090 134° Southeast 287 330 10,100 1,680 Climbing FlightAware
09:46PM 32.9310 -96.8020 144° Southeast 297 342 10,300 900 Climbing FlightAware
09:47PM 32.9150 -96.7950 160° South 314 361 10,400 480 Climbing FlightAware
09:47PM 32.8940 -96.7920 173° South 333 383 10,500 840 Climbing FlightAware
09:48PM 32.8360 -96.7920 180° South 367 422 11,100 900 Climbing FlightAware
09:48PM 32.7700 -96.7940 181° South 404 465 11,600 1,260 Climbing FlightAware
09:49PM 32.7040 -96.7970 182° South 423 487 12,600 2,280 Climbing FlightAware
09:49PM 32.6370 -96.8000 182° South 423 487 14,200 2,460 Climbing FlightAware
09:50PM 32.5670 -96.8030 182° South 426 490 15,600 2,700 Climbing FlightAware
09:50PM 32.4970 -96.8060 182° South 414 476 17,500 2,640 Climbing FlightAware
09:51PM 32.4310 -96.8090 182° South 417 480 18,700 1,860 Climbing FlightAware
09:52PM 32.3610 -96.8120 182° South 425 489 19,700 1,680 Climbing FlightAware
09:52PM 32.3192 -96.8139 182° South 430 495 20,300 1,620 Climbing FlightAware ADS-B
09:52PM 32.2651 -96.8067 174° South 442 509 21,000 1,560 Climbing FlightAware ADS-B
09:53PM 32.1799 -96.7765 163° South 453 521 22,100 1,500 Climbing FlightAware ADS-B
09:54PM 32.1073 -96.7481 162° South 459 528 23,000 1,680 Climbing FlightAware ADS-B
09:54PM 32.0456 -96.7242 162° South 457 526 24,000 2,400 Climbing FlightAware ADS-B
09:55PM 31.9863 -96.7016 162° South 437 503 25,500 2,040 Climbing FlightAware ADS-B
09:55PM 31.9275 -96.6794 162° South 441 507 26,100 840 Climbing FlightAware ADS-B
09:56PM 31.8671 -96.6567 162° South 453 521 26,400 660 Climbing FlightAware ADS-B
09:56PM 31.8053 -96.6315 161° South 465 535 26,800 660 Climbing FlightAware ADS-B
09:57PM 31.7427 -96.6054 160° South 475 547 27,100 660 Climbing FlightAware ADS-B
09:57PM 31.6736 -96.5769 161° South 486 559 27,500 840 Climbing FlightAware ADS-B
09:58PM 31.6020 -96.5476 161° South 490 564 28,100 1,200 Climbing FlightAware ADS-B
09:58PM 31.5373 -96.5212 161° South 490 564 28,800 1,260 Climbing FlightAware ADS-B
09:59PM 31.4730 -96.4959 161° South 490 564 29,400 1,260 Climbing FlightAware ADS-B
09:59PM 31.4063 -96.4715 163° South 488 562 30,100 1,320 Climbing FlightAware ADS-B
10:00PM 31.3402 -96.4472 163° South 485 558 30,800 900 Climbing FlightAware ADS-B
10:00PM 31.2760 -96.4234 162° South 484 557 31,000 240 Climbing FlightAware ADS-B
10:01PM 31.2380 -96.4087 162° South 488 562 31,000  Level FlightAware ADS-B
10:01PM 31.2147 -96.3968 156° South 492 566 31,000  Level FlightAware ADS-B
10:01PM 31.1962 -96.3846 151° Southeast 495 570 31,000  Level FlightAware ADS-B
10:01PM 31.1784 -96.3702 145° Southeast 498 573 31,000  Level FlightAware ADS-B
10:01PM 31.1467 -96.3360 137° Southeast 504 580 31,000  Level FlightAware ADS-B
10:02PM 31.1292 -96.3103 128° Southeast 509 586 31,000  Level FlightAware ADS-B
10:02PM 31.1214 -96.2965 123° Southeast 511 588 31,000  Level FlightAware ADS-B
10:02PM 31.1092 -96.2702 118° Southeast 515 593 31,000  Level FlightAware ADS-B
10:02PM 31.1002 -96.2456 113° Southeast 518 596 31,000  Level FlightAware ADS-B
10:03PM 31.0776 -96.1663 108° East 521 600 31,000  Level FlightAware ADS-B
10:03PM 31.0702 -96.1309 104° East 522 601 31,000  Level FlightAware ADS-B
10:03PM 31.0580 -96.0470 100° East 524 603 31,000  Level FlightAware ADS-B
10:04PM 31.0490 -95.9842 99° East 524 603 31,000  Level FlightAware ADS-B
10:04PM 31.0462 -95.9573 97° East 525 604 31,000  Level FlightAware ADS-B
10:04PM 31.0439 -95.8719 92° East 528 608 31,000  Level FlightAware ADS-B
10:05PM 31.0428 -95.7864 91° East 528 608 31,000  Level FlightAware ADS-B
10:05PM 31.0416 -95.7430 92° East 528 608 31,000  Level FlightAware ADS-B
10:05PM 31.0378 -95.7077 97° East 524 603 31,000  Level FlightAware ADS-B
10:06PM 31.0318 -95.6787 104° East 522 601 31,000  Level FlightAware ADS-B
10:06PM 31.0237 -95.6515 109° East 519 597 31,000  Level FlightAware ADS-B
10:06PM 30.9927 -95.5762 116° Southeast 512 589 31,000  Level FlightAware ADS-B
10:07PM 30.9640 -95.5006 114° Southeast 507 583 31,000  Level FlightAware ADS-B
10:07PM 30.9358 -95.4238 113° Southeast 506 582 31,000  Level FlightAware ADS-B
10:08PM 30.9080 -95.3486 113° Southeast 505 581 31,000  Level FlightAware ADS-B
10:08PM 30.8808 -95.2731 113° Southeast 505 581 31,000  Level FlightAware ADS-B
10:09PM 30.8647 -95.2282 113° Southeast 506 582 31,000  Level FlightAware ADS-B
10:09PM 30.8339 -95.1545 116° Southeast 503 579 31,000  Level FlightAware ADS-B
10:10PM 30.8016 -95.0795 117° Southeast 504 580 31,000  Level FlightAware ADS-B
10:10PM 30.7704 -95.0063 116° Southeast 506 582 31,000  Level FlightAware ADS-B
10:11PM 30.7386 -94.9331 117° Southeast 507 583 31,000  Level FlightAware ADS-B
10:11PM 30.7057 -94.8581 117° Southeast 508 585 31,000  Level FlightAware ADS-B
10:12PM 30.6735 -94.7853 117° Southeast 508 585 31,000  Level FlightAware ADS-B
10:12PM 30.6449 -94.7221 118° Southeast 508 585 31,000  Level FlightAware ADS-B
10:12PM 30.6106 -94.6500 119° Southeast 510 587 31,000  Level FlightAware ADS-B
10:13PM 30.5751 -94.5751 119° Southeast 510 587 31,000  Level FlightAware ADS-B
10:14PM 30.5399 -94.5018 119° Southeast 510 587 31,000  Level FlightAware ADS-B
10:14PM 30.5049 -94.4296 119° Southeast 512 589 31,000  Level FlightAware ADS-B
10:14PM 30.4835 -94.3862 120° Southeast 514 592 31,000  Level FlightAware ADS-B
10:15PM 30.4693 -94.3572 120° Southeast 514 592 31,000  Level FlightAware ADS-B
10:15PM 30.4452 -94.3086 120° Southeast 515 593 31,000  Level FlightAware ADS-B
10:15PM 30.4432 -94.3048 121° Southeast 515 593 31,000  Level FlightAware ADS-B
10:15PM 30.4036 -94.2346 123° Southeast 514 592 31,000  Level FlightAware ADS-B
10:16PM 30.3636 -94.1652 124° Southeast 513 590 31,000  Level FlightAware ADS-B
10:16PM 30.3221 -94.0961 125° Southeast 510 587 31,000  Level FlightAware ADS-B
10:17PM 30.2815 -94.0295 125° Southeast 504 580 31,000  Level FlightAware ADS-B
10:17PM 30.2425 -93.9627 124° Southeast 497 572 31,000  Level FlightAware ADS-B
10:18PM 30.2255 -93.9357 126° Southeast 496 571 31,000  Level FlightAware ADS-B
10:18PM 30.2069 -93.9122 132° Southeast 492 566 31,000  Level FlightAware ADS-B
10:18PM 30.1866 -93.8908 138° Southeast 490 564 31,000  Level FlightAware ADS-B
10:18PM 30.1716 -93.8773 142° Southeast 490 564 31,000  Level FlightAware ADS-B
10:18PM 30.1541 -93.8642 147° Southeast 489 563 31,000  Level FlightAware ADS-B
10:18PM 30.1372 -93.8538 152° Southeast 488 562 31,000  Level FlightAware ADS-B
10:19PM 30.1187 -93.8441 156° South 487 560 31,000  Level FlightAware ADS-B
10:19PM 30.0840 -93.8281 158° South 486 559 31,000  Level FlightAware ADS-B
10:19PM 30.0220 -93.7940 155° Southeast 487 560 31,000  Level FlightAware ADS-B
10:20PM 29.9984 -93.7803 153° Southeast 486 559 31,000  Level FlightAware ADS-B
10:20PM 29.9831 -93.7710 152° Southeast 487 560 31,000  Level FlightAware ADS-B
10:20PM 29.9237 -93.7327 151° Southeast 489 563 31,000  Level FlightAware ADS-B
10:21PM 29.8639 -93.6939 151° Southeast 489 563 31,000  Level FlightAware ADS-B
10:21PM 29.8042 -93.6543 150° Southeast 487 560 31,000  Level FlightAware ADS-B
10:22PM 29.7453 -93.6143 149° Southeast 487 560 31,000  Level FlightAware ADS-B
10:22PM 29.6864 -93.5746 150° Southeast 486 559 31,000  Level FlightAware ADS-B
10:23PM 29.6271 -93.5351 150° Southeast 486 559 31,000  Level FlightAware ADS-B
10:23PM 29.5681 -93.4960 150° Southeast 485 558 31,000  Level FlightAware ADS-B
10:23PM 29.5577 -93.4891 150° Southeast 485 558 31,000  Level FlightAware ADS-B
10:24PM 29.5093 -93.4571 150° Southeast 485 558 31,000  Level FlightAware ADS-B
10:24PM 29.4930 -93.4463 150° Southeast 485 558 31,000  Level FlightAware ADS-B
10:24PM 29.4504 -93.4182 150° Southeast 485 558 31,000  Level FlightAware ADS-B
10:24PM 29.4301 -93.4048 150° Southeast 485 558 31,000  Level FlightAware ADS-B
10:25PM 29.3920 -93.3796 150° Southeast 486 559 31,000  Level FlightAware ADS-B
10:25PM 29.3527 -93.3538 150° Southeast 486 559 31,000  Level FlightAware ADS-B
10:25PM 29.3330 -93.3408 150° Southeast 486 559 31,000  Level FlightAware ADS-B
10:26PM 29.2962 -93.3165 150° Southeast 487 560 31,000  Level FlightAware ADS-B
10:26PM 29.2744 -93.3020 150° Southeast 486 559 31,000  Level FlightAware ADS-B
10:26PM 29.2343 -93.2757 150° Southeast 488 562 31,000  Level FlightAware ADS-B
10:26PM 29.2157 -93.2634 150° Southeast 488 562 31,000  Level FlightAware ADS-B
10:27PM 29.1770 -93.2380 150° Southeast 489 563 31,000  Level FlightAware ADS-B
10:27PM 29.1556 -93.2239 150° Southeast 490 564 31,000  Level FlightAware ADS-B
10:27PM 29.0966 -93.1850 150° Southeast 491 565 31,000  Level FlightAware ADS-B
10:28PM 29.0397 -93.1476 150° Southeast 493 567 31,000  Level FlightAware ADS-B
10:28PM 29.0371 -93.1460 151° Southeast 493 567 31,000  Level FlightAware ADS-B
10:28PM 29.0860 -93.1610 345° North 485 558 31,000  Level FlightAware
10:29PM 28.9508 -93.0894 155° Southeast 493 567 31,000  Level FlightAware ADS-B
10:29PM 28.8450 -93.0115 147° Southeast 493 567 31,000  Level FlightAware ADS-B
10:30PM 28.7841 -92.9644 146° Southeast 494 568 31,000  Level FlightAware ADS-B
10:31PM 28.8460 -92.9960 336° Northwest 485 558 31,000  Level FlightAware
10:31PM 28.7870 -92.9560 149° Southeast 485 558 31,000  Level FlightAware
10:32PM 28.7280 -92.9160 149° Southeast 485 558 31,000 -60 Level FlightAware
10:33PM 28.4128 -92.6858 149° Southeast 485 558 30,900 -60 Descending Houston Center
10:34PM 28.3008 -92.6019 147° Southeast 482 555 30,900  Level Houston Center
10:35PM 28.1892 -92.5172 146° Southeast 482 555 30,900  Level Houston Center
10:36PM 28.0772 -92.4333 147° Southeast 482 555 31,000  Climbing Houston Center
10:37PM 27.9642 -92.3475 146° Southeast 489 563 31,000  Level Houston Center
10:38PM 27.8467 -92.2594 146° Southeast 502 578 31,000 -60 Level Houston Center
10:39PM 27.7275 -92.1725 147° Southeast 508 585 30,900 -60 Descending Houston Center
10:40PM 27.6103 -92.0864 147° Southeast 505 581 30,900  Level Houston Center
10:42PM 27.4692 -91.9833 147° Southeast 503 579 30,900  Level Houston Center
10:43PM 27.3519 -91.8950 146° Southeast 505 581 30,900  Level Houston Center
10:44PM 27.2350 -91.8078 146° Southeast 506 582 30,900  Level Houston Center
10:45PM 27.1172 -91.7233 147° Southeast 503 579 31,000 60 Climbing Houston Center
10:47PM 26.8851 -91.5895 153° Southeast  Level FlightAware Approximate
10:54PM 26.0754 -91.0670 145° Southeast  Level FlightAware Approximate
10:55PM 25.9660 -90.9812 145° Southeast  Level FlightAware Approximate
10:56PM 25.8566 -90.8956 145° Southeast  Level FlightAware Approximate
10:57PM 25.7471 -90.8102 145° Southeast  Level FlightAware Approximate
10:58PM 25.6376 -90.7248 145° Southeast  Level FlightAware Approximate
10:59PM 25.5280 -90.6397 145° Southeast  Level FlightAware Approximate
11:00PM 25.4183 -90.5547 145° Southeast  Level FlightAware Approximate
11:01PM 25.3087 -90.4698 145° Southeast  Level FlightAware Approximate
11:02PM 25.1989 -90.3851 145° Southeast  Level FlightAware Approximate
11:03PM 25.0892 -90.3006 145° Southeast  Level FlightAware Approximate
11:04PM 24.9794 -90.2162 145° Southeast  Level FlightAware Approximate
11:05PM 24.8695 -90.1320 145° Southeast  Level FlightAware Approximate
11:06PM 24.7596 -90.0479 145° Southeast  Level FlightAware Approximate
11:07PM 24.6496 -89.9639 145° Southeast  Level FlightAware Approximate
11:08PM 24.5396 -89.8801 145° Southeast  Level FlightAware Approximate
11:08PM 24.4220 -89.7930 145° Southeast 31,600  Level FlightAware
11:09PM 24.2750 -89.6810 145° Southeast 511 588 33,000 720 Climbing FlightAware
11:10PM 24.1960 -89.6210 145° Southeast 510 587 33,000  Level FlightAware
11:10PM 24.1270 -89.5690 145° Southeast 507 583 33,000  Level FlightAware
11:11PM 24.0430 -89.5060 146° Southeast 506 582 33,000  Level FlightAware
11:12PM 23.9520 -89.4370 145° Southeast 506 582 33,000  Level FlightAware
11:13PM 23.8570 -89.3660 146° Southeast 506 582 33,000  Level FlightAware
11:13PM 23.7980 -89.3210 145° Southeast 506 582 33,000  Level FlightAware
11:14PM 23.7300 -89.2710 146° Southeast 507 583 33,000  Level FlightAware
11:14PM 23.6750 -89.2300 146° Southeast 507 583 33,000  Level FlightAware
11:15PM 23.5860 -89.1630 145° Southeast 509 586 33,000  Level FlightAware
11:15PM 23.5240 -89.1160 145° Southeast 509 586 33,000  Level FlightAware
11:16PM 23.4570 -89.0660 146° Southeast 509 586 33,000  Level FlightAware
11:17PM 23.3450 -88.9830 146° Southeast 511 588 33,000  Level FlightAware
11:17PM 23.3060 -88.9530 145° Southeast 511 588 33,000  Level FlightAware
11:18PM 23.2240 -88.8920 146° Southeast 512 589 33,000  Level FlightAware
11:18PM 23.1640 -88.8480 146° Southeast 513 590 33,000  Level FlightAware
11:19PM 23.0930 -88.7950 146° Southeast 514 592 33,000  Level FlightAware
11:20PM 23.0290 -88.7470 145° Southeast 515 593 33,000  Level FlightAware
11:20PM 22.9500 -88.6890 146° Southeast 515 593 33,000  Level FlightAware
11:21PM 22.8850 -88.6410 146° Southeast 512 589 33,000  Level FlightAware
11:21PM 22.8360 -88.6050 146° Southeast 511 588 33,000  Level FlightAware
11:22PM 22.7560 -88.5460 146° Southeast 510 587 33,000  Level FlightAware
11:23PM 22.6810 -88.4910 146° Southeast 508 585 33,000  Level FlightAware
11:23PM 22.5960 -88.4240 144° Southeast 507 583 33,000  Level FlightAware
11:24PM 22.5100 -88.3410 138° Southeast 502 578 33,000  Level FlightAware
11:24PM 22.4540 -88.2830 136° Southeast 502 578 33,000  Level FlightAware
11:25PM 22.4040 -88.2320 137° Southeast 501 577 33,000  Level FlightAware
11:26PM 22.3470 -88.1750 137° Southeast 500 575 33,000  Level FlightAware
11:26PM 22.2940 -88.1210 137° Southeast 503 579 33,000  Level FlightAware
11:27PM 22.2300 -88.0560 137° Southeast 503 579 33,000  Level FlightAware
11:27PM 22.1770 -88.0020 137° Southeast 503 579 33,000  Level FlightAware
11:28PM 22.1100 -87.9350 137° Southeast 503 579 33,000  Level FlightAware
11:28PM 22.0460 -87.8700 137° Southeast 502 578 33,000  Level FlightAware
11:29PM 21.9880 -87.8120 137° Southeast 501 577 33,000  Level FlightAware
11:30PM 21.9350 -87.7580 137° Southeast 500 575 33,000  Level FlightAware
11:30PM 21.8700 -87.6930 137° Southeast 501 577 33,000  Level FlightAware
11:31PM 21.7970 -87.6200 137° Southeast 503 579 33,000  Level FlightAware
11:32PM 21.7390 -87.5630 138° Southeast 504 580 33,000  Level FlightAware
11:32PM 21.6870 -87.5110 137° Southeast 504 580 33,000  Level FlightAware
11:33PM 21.6230 -87.4480 138° Southeast 505 581 33,000  Level FlightAware
11:33PM 21.5530 -87.3790 137° Southeast 508 585 33,000  Level FlightAware
11:34PM 21.4940 -87.3200 137° Southeast 508 585 33,000  Level FlightAware
11:34PM 21.4340 -87.2610 138° Southeast 509 586 33,000  Level FlightAware
11:35PM 21.3700 -87.1980 137° Southeast 510 587 33,000  Level FlightAware
11:36PM 21.3130 -87.1420 138° Southeast 510 587 33,000  Level FlightAware
11:36PM 21.2560 -87.0850 137° Southeast 510 587 33,000  Level FlightAware
11:37PM 21.1920 -87.0230 138° Southeast 509 586 33,000  Level FlightAware
11:37PM 21.1450 -86.9760 137° Southeast 510 587 33,000  Level FlightAware
11:38PM 21.0730 -86.9060 138° Southeast 511 588 33,000  Level FlightAware
11:39PM 21.0050 -86.8390 137° Southeast 511 588 33,000  Level FlightAware
11:39PM 20.9560 -86.7910 138° Southeast 510 587 33,000  Level FlightAware
11:40PM 20.8730 -86.7110 138° Southeast 511 588 33,000  Level FlightAware
11:40PM 20.8120 -86.6510 137° Southeast 511 588 33,000  Level FlightAware
11:41PM 20.7480 -86.5900 138° Southeast 508 585 33,000  Level FlightAware
11:41PM 20.6850 -86.5290 138° Southeast 503 579 33,000  Level FlightAware
11:42PM 20.6270 -86.4730 138° Southeast 498 573 33,000  Level FlightAware
11:43PM 20.5710 -86.4190 138° Southeast 496 571 33,000  Level FlightAware
11:43PM 20.5170 -86.3670 138° Southeast 496 571 33,000  Level FlightAware
11:44PM 20.4600 -86.3100 137° Southeast 496 571 33,000  Level FlightAware
11:44PM 20.4090 -86.2590 137° Southeast 496 571 33,000  Level FlightAware
11:45PM 20.3580 -86.2080 137° Southeast 496 571 33,000  Level FlightAware
11:46PM 20.3060 -86.1570 137° Southeast 496 571 33,000  Level FlightAware
11:46PM 20.2050 -86.0660 140° Southeast 496 571 33,000  Level FlightAware
11:47PM 20.1490 -86.0130 138° Southeast 497 572 33,000  Level FlightAware
11:47PM 20.0900 -85.9560 138° Southeast 497 572 33,000  Level FlightAware
11:48PM 20.0300 -85.8990 138° Southeast 497 572 33,000  Level FlightAware
11:48PM 19.9670 -85.8390 138° Southeast 503 579 33,000  Level FlightAware
11:49PM 19.9060 -85.7820 139° Southeast 505 581 33,000  Level FlightAware
11:50PM 19.8430 -85.7220 138° Southeast 505 581 33,000  Level FlightAware
11:50PM 19.7780 -85.6610 139° Southeast 507 583 33,000  Level FlightAware
11:51PM 19.7210 -85.6080 139° Southeast 507 583 33,000  Level FlightAware
11:52PM 19.6480 -85.5380 138° Southeast 506 582 33,000  Level FlightAware
11:52PM 19.5860 -85.4810 139° Southeast 504 580 33,000  Level FlightAware
11:53PM 19.4990 -85.3990 138° Southeast 505 581 33,000  Level FlightAware
11:53PM 19.4380 -85.3420 139° Southeast 506 582 33,000  Level FlightAware
11:54PM 19.3750 -85.2830 139° Southeast 506 582 33,000  Level FlightAware
11:55PM 19.3240 -85.2350 138° Southeast 507 583 33,000  Level FlightAware
11:55PM 19.2700 -85.1840 138° Southeast 507 583 33,000  Level FlightAware
11:56PM 19.2170 -85.1330 138° Southeast 507 583 33,000  Level FlightAware
11:56PM 19.1610 -85.0790 138° Southeast 507 583 33,000  Level FlightAware
11:57PM 19.1070 -85.0280 138° Southeast 507 583 33,000  Level FlightAware
11:58PM 19.0540 -84.9780 138° Southeast 507 583 33,000  Level FlightAware
11:58PM 19.0010 -84.9270 138° Southeast 507 583 33,000  Level FlightAware
11:59PM 18.9470 -84.8760 138° Southeast 507 583 33,000  Level FlightAware
11:59PM 18.8940 -84.8250 138° Southeast 507 583 33,000  Level FlightAware
12:00AM 18.8410 -84.7750 138° Southeast 507 583 33,000  Level FlightAware
12:01AM 18.7860 -84.7220 138° Southeast 507 583 33,000  Level FlightAware
12:01AM 18.7330 -84.6720 138° Southeast 507 583 33,000  Level FlightAware
12:02AM 18.6790 -84.6210 138° Southeast 507 583 33,000  Level FlightAware
12:03AM 18.6240 -84.5690 138° Southeast 507 583 33,000  Level FlightAware
12:03AM 18.5710 -84.5180 138° Southeast 507 583 33,000  Level FlightAware
12:04AM 18.5180 -84.4680 138° Southeast 507 583 33,000  Level FlightAware
12:06AM 18.3463 -84.2996 137° Southeast  Level Estimated
12:07AM 18.2508 -84.2062 137° Southeast  Level Estimated
12:08AM 18.1553 -84.1129 137° Southeast  Level Estimated
12:09AM 18.0597 -84.0198 137° Southeast  Level Estimated
12:10AM 17.9641 -83.9267 137° Southeast  Level Estimated
12:11AM 17.8685 -83.8337 137° Southeast  Level Estimated
12:12AM 17.7728 -83.7408 137° Southeast  Level Estimated
12:13AM 17.6771 -83.6480 137° Southeast  Level Estimated
12:14AM 17.5813 -83.5553 137° Southeast  Level Estimated
12:15AM 17.4855 -83.4627 137° Southeast  Level Estimated
12:16AM 17.3896 -83.3702 137° Southeast  Level Estimated
12:17AM 17.2937 -83.2778 137° Southeast  Level Estimated
12:18AM 17.1977 -83.1855 137° Southeast  Level Estimated
12:19AM 17.1017 -83.0933 137° Southeast  Level Estimated
12:20AM 17.0057 -83.0012 137° Southeast  Level Estimated
12:21AM 16.9097 -82.9092 137° Southeast  Level Estimated
12:22AM 16.8135 -82.8173 138° Southeast  Level Estimated
12:23AM 16.7174 -82.7254 138° Southeast  Level Estimated
12:24AM 16.6212 -82.6337 138° Southeast  Level Estimated
12:25AM 16.5249 -82.5420 138° Southeast  Level Estimated
12:26AM 16.4287 -82.4505 138° Southeast  Level Estimated
12:27AM 16.3323 -82.3590 138° Southeast  Level Estimated
12:28AM 16.2360 -82.2677 138° Southeast  Level Estimated
12:29AM 16.1396 -82.1764 138° Southeast  Level Estimated
12:30AM 16.0432 -82.0852 138° Southeast  Level Estimated
12:31AM 15.9467 -81.9941 138° Southeast  Level Estimated
12:32AM 15.8502 -81.9031 138° Southeast  Level Estimated
12:33AM 15.7536 -81.8121 138° Southeast  Level Estimated
12:34AM 15.6570 -81.7213 138° Southeast  Level Estimated
12:35AM 15.5604 -81.6305 138° Southeast  Level Estimated
12:36AM 15.4638 -81.5398 138° Southeast  Level Estimated
12:37AM 15.3671 -81.4493 138° Southeast  Level Estimated
12:38AM 15.2703 -81.3587 138° Southeast  Level Estimated
12:39AM 15.1736 -81.2683 138° Southeast  Level Estimated
12:40AM 15.0764 -81.1777 138° Southeast  Level Estimated
12:41AM 14.9792 -81.0871 138° Southeast  Level Estimated
12:42AM 14.8820 -80.9966 138° Southeast  Level Estimated
12:43AM 14.7848 -80.9062 138° Southeast  Level Estimated
12:44AM 14.6875 -80.8159 138° Southeast  Level Estimated
12:45AM 14.5902 -80.7256 138° Southeast  Level Estimated
12:46AM 14.4928 -80.6355 138° Southeast  Level Estimated
12:47AM 14.3954 -80.5454 138° Southeast  Level Estimated
12:48AM 14.2980 -80.4554 138° Southeast  Level Estimated
12:49AM 14.2005 -80.3654 138° Southeast  Level Estimated
12:50AM 14.1030 -80.2756 138° Southeast  Level Estimated
12:51AM 14.0055 -80.1858 138° Southeast  Level Estimated
12:52AM 13.9080 -80.0961 138° Southeast  Level Estimated
12:53AM 13.8104 -80.0065 138° Southeast  Level Estimated
12:54AM 13.7127 -79.9169 138° Southeast  Level Estimated
12:55AM 13.6151 -79.8274 138° Southeast  Level Estimated
12:56AM 13.5174 -79.7380 138° Southeast  Level Estimated
12:57AM 13.4197 -79.6487 138° Southeast  Level Estimated
12:58AM 13.3219 -79.5594 138° Southeast  Level Estimated
12:59AM 13.2241 -79.4703 138° Southeast  Level Estimated
01:00AM 13.1263 -79.3811 138° Southeast  Level Estimated
01:01AM 13.0285 -79.2921 138° Southeast  Level Estimated
01:02AM 12.9306 -79.2031 138° Southeast  Level Estimated
01:03AM 12.8327 -79.1142 138° Southeast  Level Estimated
01:04AM 12.7348 -79.0254 138° Southeast  Level Estimated
01:05AM 12.6368 -78.9367 139° Southeast  Level Estimated
01:06AM 12.5388 -78.8480 139° Southeast  Level Estimated
01:07AM 12.4408 -78.7593 139° Southeast  Level Estimated
01:08AM 12.3428 -78.6708 139° Southeast  Level Estimated
01:09AM 12.2447 -78.5823 139° Southeast  Level Estimated
01:10AM 12.1466 -78.4938 139° Southeast  Level Estimated
01:11AM 12.0484 -78.4055 139° Southeast  Level Estimated
01:12AM 11.9503 -78.3172 139° Southeast  Level Estimated
01:13AM 11.8521 -78.2289 139° Southeast  Level Estimated
01:14AM 11.7539 -78.1408 139° Southeast  Level Estimated
01:15AM 11.6556 -78.0527 139° Southeast  Level Estimated
01:16AM 11.5574 -77.9646 139° Southeast  Level Estimated
01:17AM 11.4591 -77.8766 139° Southeast  Level Estimated
01:18AM 11.3607 -77.7887 139° Southeast  Level Estimated
01:19AM 11.2624 -77.7008 139° Southeast  Level Estimated
01:20AM 11.1640 -77.6130 139° Southeast  Level Estimated
01:21AM 11.0656 -77.5253 139° Southeast  Level Estimated
01:21AM 10.3470 -76.8470 139° Southeast 498 573 33,000  Level FlightAware
01:22AM 10.9672 -77.4376 139° Southeast  Level Estimated
01:22AM 10.2950 -76.7980 137° Southeast 498 573 33,000  Level FlightAware
01:22AM 10.2270 -76.7350 138° Southeast 498 573 33,000  Level FlightAware
01:23AM 10.1480 -76.6610 137° Southeast 498 573 33,000  Level FlightAware
01:24AM 10.0530 -76.5730 138° Southeast 499 574 33,000  Level FlightAware
01:25AM 9.9920 -76.5180 138° Southeast 498 573 33,000  Level FlightAware
01:25AM 9.9210 -76.4520 138° Southeast 498 573 33,000  Level FlightAware
01:26AM 9.8650 -76.3990 137° Southeast 498 573 33,000  Level FlightAware
01:27AM 9.8000 -76.3390 138° Southeast 498 573 33,000  Level FlightAware
01:27AM 9.7270 -76.2720 138° Southeast 495 570 33,000  Level FlightAware
01:28AM 9.6800 -76.2290 138° Southeast 495 570 33,000  Level FlightAware
01:28AM 9.6120 -76.1660 138° Southeast 495 570 33,000  Level FlightAware
01:29AM 9.5540 -76.1130 138° Southeast 495 570 33,000  Level FlightAware
01:30AM 9.4850 -76.0490 138° Southeast 495 570 33,000  Level FlightAware
01:30AM 9.4320 -75.9840 130° Southeast 493 567 33,000  Level FlightAware
01:31AM 9.3840 -75.9220 128° Southeast 493 567 33,000  Level FlightAware
01:31AM 9.3440 -75.8700 128° Southeast 492 566 33,000  Level FlightAware
01:32AM 9.2750 -75.7890 131° Southeast 493 567 33,000  Level FlightAware
01:33AM 9.2270 -75.7330 131° Southeast 493 567 33,000  Level FlightAware
01:34AM 9.1420 -75.6340 131° Southeast 494 568 33,000  Level FlightAware
01:34AM 9.0690 -75.5550 133° Southeast 496 571 33,000  Level FlightAware
01:35AM 8.9910 -75.4760 135° Southeast 496 571 33,000  Level FlightAware
01:36AM 8.9050 -75.3930 136° Southeast 497 572 33,000  Level FlightAware
01:37AM 8.8560 -75.3520 140° Southeast 497 572 33,000  Level FlightAware
01:37AM 8.7550 -75.2670 140° Southeast 498 573 33,000  Level FlightAware
01:38AM 8.6670 -75.1920 140° Southeast 498 573 33,000  Level FlightAware
01:39AM 8.5980 -75.1120 131° Southeast 495 570 33,000  Level FlightAware
01:40AM 8.5560 -75.0500 124° Southeast 494 568 33,000  Level FlightAware
01:40AM 8.4850 -74.9480 125° Southeast 494 568 33,000  Level FlightAware
01:41AM 8.4350 -74.8750 125° Southeast 493 567 33,000  Level FlightAware
01:42AM 8.3910 -74.8110 125° Southeast 494 568 33,000  Level FlightAware
01:42AM 8.3380 -74.7310 124° Southeast 494 568 33,000  Level FlightAware
01:43AM 8.2890 -74.6410 119° Southeast 493 567 33,000  Level FlightAware
01:44AM 8.2440 -74.5590 119° Southeast 494 568 33,000  Level FlightAware
01:44AM 8.2050 -74.4920 120° Southeast 492 566 33,000  Level FlightAware
01:45AM 8.1420 -74.4240 133° Southeast 492 566 33,000  Level FlightAware
01:46AM 8.0830 -74.3840 146° Southeast 494 568 33,000  Level FlightAware
01:46AM 8.0120 -74.3450 151° Southeast 493 567 33,000  Level FlightAware
01:47AM 7.9430 -74.3080 152° Southeast 493 567 33,000  Level FlightAware
01:47AM 7.8590 -74.2620 152° Southeast 493 567 33,000  Level FlightAware
01:48AM 7.7820 -74.2210 152° Southeast 492 566 33,000  Level FlightAware
01:49AM 7.7070 -74.1890 157° South 493 567 33,000  Level FlightAware
01:49AM 7.6240 -74.1520 156° South 495 570 33,000  Level FlightAware
01:50AM 7.5490 -74.1200 157° South 493 567 33,000  Level FlightAware
01:50AM 7.4770 -74.0880 156° South 492 566 33,000  Level FlightAware
01:51AM 7.4050 -74.0520 154° Southeast 492 566 33,000  Level FlightAware
01:52AM 7.3350 -74.0150 152° Southeast 492 566 33,000  Level FlightAware
01:52AM 7.2650 -73.9760 151° Southeast 492 566 33,000  Level FlightAware
01:53AM 7.2030 -73.9430 152° Southeast 492 566 33,000  Level FlightAware
01:53AM 7.1340 -73.9050 151° Southeast 490 564 33,000  Level FlightAware
01:54AM 7.0660 -73.8690 152° Southeast 490 564 33,000  Level FlightAware
01:55AM 6.9910 -73.8280 152° Southeast 490 564 33,000  Level FlightAware
01:55AM 6.9280 -73.7940 152° Southeast 490 564 33,000  Level FlightAware
01:56AM 6.8440 -73.7470 151° Southeast 490 564 33,000  Level FlightAware
01:56AM 6.7730 -73.7090 152° Southeast 490 564 33,000  Level FlightAware
01:57AM 6.7140 -73.6770 152° Southeast 490 564 33,000  Level FlightAware
01:57AM 6.6310 -73.6320 152° Southeast 489 563 33,000  Level FlightAware
01:58AM 6.5590 -73.5930 152° Southeast 490 564 33,000  Level FlightAware
01:59AM 6.4970 -73.5600 152° Southeast 491 565 33,000  Level FlightAware
01:59AM 6.4220 -73.5190 151° Southeast 492 566 33,000  Level FlightAware
02:00AM 6.3530 -73.4810 151° Southeast 490 564 33,000  Level FlightAware
02:00AM 6.2830 -73.4440 152° Southeast 491 565 33,000  Level FlightAware
02:01AM 6.2070 -73.4020 151° Southeast 490 564 33,000  Level FlightAware
02:02AM 6.1430 -73.3680 152° Southeast 490 564 33,000  Level FlightAware
02:02AM 6.0620 -73.3230 151° Southeast 489 563 33,000  Level FlightAware
02:03AM 6.0010 -73.2890 151° Southeast 489 563 33,000  Level FlightAware
02:03AM 5.9390 -73.2550 151° Southeast 489 563 33,000  Level FlightAware
02:04AM 5.8790 -73.2210 151° Southeast 489 563 33,000  Level FlightAware
02:05AM 5.8180 -73.1870 151° Southeast 489 563 33,000  Level FlightAware
02:05AM 5.7580 -73.1540 151° Southeast 489 563 33,000  Level FlightAware
02:06AM 5.6970 -73.1200 151° Southeast 489 563 33,000  Level FlightAware
02:06AM 5.5480 -73.0470 154° Southeast 489 563 33,000  Level FlightAware
02:07AM 5.4730 -73.0060 151° Southeast 489 563 33,000  Level FlightAware
02:08AM 5.4100 -72.9720 152° Southeast 490 564 33,000  Level FlightAware
02:08AM 5.3420 -72.9350 152° Southeast 492 566 33,000  Level FlightAware
02:09AM 5.2650 -72.8940 152° Southeast 493 567 33,000  Level FlightAware
02:09AM 5.1950 -72.8560 152° Southeast 493 567 33,000  Level FlightAware
02:10AM 5.1360 -72.8240 152° Southeast 492 566 33,000  Level FlightAware
02:11AM 5.0630 -72.7840 151° Southeast 492 566 33,000  Level FlightAware
02:12AM 4.9650 -72.7290 151° Southeast 492 566 33,000  Level FlightAware
02:12AM 4.9020 -72.6940 151° Southeast 492 566 33,000  Level FlightAware
02:13AM 4.8410 -72.6600 151° Southeast 492 566 33,000  Level FlightAware
02:13AM 4.7790 -72.6250 151° Southeast 492 566 33,000  Level FlightAware
02:14AM 4.7180 -72.5920 152° Southeast 492 566 33,000  Level FlightAware
02:15AM 4.6570 -72.5580 151° Southeast 492 566 33,000  Level FlightAware
02:15AM 4.5960 -72.5240 151° Southeast 492 566 33,000  Level FlightAware
02:16AM 4.5350 -72.4900 151° Southeast 492 566 33,000  Level FlightAware
02:16AM 4.4740 -72.4560 151° Southeast 492 566 33,000  Level FlightAware
02:17AM 4.4130 -72.4220 151° Southeast 492 566 33,000  Level FlightAware
02:18AM 4.3510 -72.3870 151° Southeast 492 566 33,000  Level FlightAware
02:18AM 4.2900 -72.3540 152° Southeast 492 566 33,000  Level FlightAware
02:19AM 4.2270 -72.3190 151° Southeast 492 566 33,000  Level FlightAware
02:19AM 4.1660 -72.2850 151° Southeast 492 566 33,000  Level FlightAware
02:22AM 3.9376 -72.1361 147° Southeast  Level FlightAware Approximate
02:23AM 3.8297 -72.0602 145° Southeast  Level FlightAware Approximate
02:24AM 3.7228 -71.9848 145° Southeast  Level FlightAware Approximate
02:25AM 3.6159 -71.9094 145° Southeast  Level FlightAware Approximate
02:26AM 3.5090 -71.8340 145° Southeast  Level FlightAware Approximate
02:27AM 3.4020 -71.7586 145° Southeast  Level FlightAware Approximate
02:28AM 3.2951 -71.6832 145° Southeast  Level FlightAware Approximate
02:29AM 3.1882 -71.6079 145° Southeast  Level FlightAware Approximate
02:30AM 3.0812 -71.5325 145° Southeast  Level FlightAware Approximate
02:31AM 2.9743 -71.4572 145° Southeast  Level FlightAware Approximate
02:32AM 2.8673 -71.3819 145° Southeast  Level FlightAware Approximate
02:33AM 2.7603 -71.3066 145° Southeast  Level FlightAware Approximate
02:34AM 2.6534 -71.2314 145° Southeast  Level FlightAware Approximate
02:35AM 2.5464 -71.1561 145° Southeast  Level FlightAware Approximate
02:36AM 2.4394 -71.0808 145° Southeast  Level FlightAware Approximate
02:37AM 2.3324 -71.0056 145° Southeast  Level FlightAware Approximate
02:38AM 2.2255 -70.9304 145° Southeast  Level FlightAware Approximate
02:39AM 2.1185 -70.8552 145° Southeast  Level FlightAware Approximate
02:40AM 2.0115 -70.7800 145° Southeast  Level FlightAware Approximate
02:41AM 1.9045 -70.7048 145° Southeast  Level FlightAware Approximate
02:42AM 1.7975 -70.6296 145° Southeast  Level FlightAware Approximate
02:43AM 1.6905 -70.5544 145° Southeast  Level FlightAware Approximate
02:44AM 1.5835 -70.4792 145° Southeast  Level FlightAware Approximate
02:45AM 1.4764 -70.4041 145° Southeast  Level FlightAware Approximate
02:46AM 1.3694 -70.3289 145° Southeast  Level FlightAware Approximate
02:47AM 1.2624 -70.2538 145° Southeast  Level FlightAware Approximate
02:48AM 1.1622 -70.1700 138° Southeast  Level FlightAware Approximate
02:49AM 1.0646 -70.0831 138° Southeast  Level FlightAware Approximate
02:50AM 0.9669 -69.9962 138° Southeast  Level FlightAware Approximate
02:51AM 0.8692 -69.9092 138° Southeast  Level FlightAware Approximate
02:52AM 0.7715 -69.8223 138° Southeast  Level FlightAware Approximate
02:53AM 0.6738 -69.7354 138° Southeast  Level FlightAware Approximate
02:54AM 0.5762 -69.6485 138° Southeast  Level FlightAware Approximate
02:55AM 0.4785 -69.5616 138° Southeast  Level FlightAware Approximate
02:56AM 0.3808 -69.4746 138° Southeast  Level FlightAware Approximate
02:57AM 0.2831 -69.3877 138° Southeast  Level FlightAware Approximate
02:58AM 0.1854 -69.3008 138° Southeast  Level FlightAware Approximate
02:59AM 0.0877 -69.2139 138° Southeast  Level FlightAware Approximate
03:00AM -0.0100 -69.1270 138° Southeast  Level FlightAware Approximate
03:01AM -0.1077 -69.0401 138° Southeast  Level FlightAware Approximate
03:02AM -0.2054 -68.9532 138° Southeast  Level FlightAware Approximate
03:03AM -0.3031 -68.8663 138° Southeast  Level FlightAware Approximate
03:04AM -0.4008 -68.7794 138° Southeast  Level FlightAware Approximate
03:05AM -0.4984 -68.6925 138° Southeast  Level FlightAware Approximate
03:06AM -0.5961 -68.6056 138° Southeast  Level FlightAware Approximate
03:07AM -0.6938 -68.5186 138° Southeast  Level FlightAware Approximate
03:08AM -0.7915 -68.4317 138° Southeast  Level FlightAware Approximate
03:09AM -0.8892 -68.3448 138° Southeast  Level FlightAware Approximate
03:10AM -0.9868 -68.2579 138° Southeast  Level FlightAware Approximate
03:11AM -1.0845 -68.1709 138° Southeast  Level FlightAware Approximate
03:12AM -1.1822 -68.0840 138° Southeast  Level FlightAware Approximate
03:13AM -1.2799 -67.9970 138° Southeast  Level FlightAware Approximate
03:14AM -1.3775 -67.9101 138° Southeast  Level FlightAware Approximate
03:15AM -1.4752 -67.8231 138° Southeast  Level FlightAware Approximate
03:16AM -1.5728 -67.7361 138° Southeast  Level FlightAware Approximate
03:17AM -1.6705 -67.6492 138° Southeast  Level FlightAware Approximate
03:18AM -1.7682 -67.5622 138° Southeast  Level FlightAware Approximate
03:19AM -1.8660 -67.4750 138° Southeast  Level FlightAware Approximate
03:20AM -1.9638 -67.3879 138° Southeast  Level FlightAware Approximate
03:21AM -2.0616 -67.3007 138° Southeast  Level FlightAware Approximate
03:22AM -2.1594 -67.2135 138° Southeast  Level FlightAware Approximate
03:23AM -2.2572 -67.1263 138° Southeast  Level FlightAware Approximate
03:24AM -2.3550 -67.0391 138° Southeast  Level FlightAware Approximate
03:25AM -2.4528 -66.9519 138° Southeast  Level FlightAware Approximate
03:26AM -2.5506 -66.8647 138° Southeast  Level FlightAware Approximate
03:27AM -2.6484 -66.7774 138° Southeast  Level FlightAware Approximate
03:28AM -2.7462 -66.6902 138° Southeast  Level FlightAware Approximate
03:29AM -2.8439 -66.6029 138° Southeast  Level FlightAware Approximate
03:30AM -2.9417 -66.5156 138° Southeast  Level FlightAware Approximate
03:31AM -3.0394 -66.4283 138° Southeast  Level FlightAware Approximate
03:32AM -3.1372 -66.3410 138° Southeast  Level FlightAware Approximate
03:33AM -3.2349 -66.2537 138° Southeast  Level FlightAware Approximate
03:34AM -3.3326 -66.1664 138° Southeast  Level FlightAware Approximate
03:35AM -3.4304 -66.0790 138° Southeast  Level FlightAware Approximate
03:36AM -3.5281 -65.9916 138° Southeast  Level FlightAware Approximate
03:37AM -3.6258 -65.9042 138° Southeast  Level FlightAware Approximate
03:38AM -3.7235 -65.8168 138° Southeast  Level FlightAware Approximate
03:39AM -3.8212 -65.7293 138° Southeast  Level FlightAware Approximate
03:40AM -3.9189 -65.6419 138° Southeast  Level FlightAware Approximate
03:41AM -4.0165 -65.5544 138° Southeast  Level FlightAware Approximate
03:42AM -4.1142 -65.4669 138° Southeast  Level FlightAware Approximate
03:43AM -4.2119 -65.3794 138° Southeast  Level FlightAware Approximate
03:44AM -4.3095 -65.2918 138° Southeast  Level FlightAware Approximate
03:45AM -4.4071 -65.2043 138° Southeast  Level FlightAware Approximate
03:46AM -4.5047 -65.1167 138° Southeast  Level FlightAware Approximate
03:47AM -4.6024 -65.0291 138° Southeast  Level FlightAware Approximate
03:48AM -4.7000 -64.9415 138° Southeast  Level FlightAware Approximate
03:49AM -4.7975 -64.8538 138° Southeast  Level FlightAware Approximate
03:50AM -4.8951 -64.7661 138° Southeast  Level FlightAware Approximate
03:51AM -4.9927 -64.6784 138° Southeast  Level FlightAware Approximate
03:52AM -5.0903 -64.5907 138° Southeast  Level FlightAware Approximate
03:53AM -5.1878 -64.5029 138° Southeast  Level FlightAware Approximate
03:54AM -5.2853 -64.4151 138° Southeast  Level FlightAware Approximate
03:55AM -5.3829 -64.3273 138° Southeast  Level FlightAware Approximate
03:56AM -5.4804 -64.2394 138° Southeast  Level FlightAware Approximate
03:57AM -5.5779 -64.1516 138° Southeast  Level FlightAware Approximate
03:58AM -5.6753 -64.0637 138° Southeast  Level FlightAware Approximate
03:59AM -5.7728 -63.9757 138° Southeast  Level FlightAware Approximate
04:00AM -5.8703 -63.8878 138° Southeast  Level FlightAware Approximate
04:01AM -5.9677 -63.7998 138° Southeast  Level FlightAware Approximate
04:02AM -6.0651 -63.7118 138° Southeast  Level FlightAware Approximate
04:03AM -6.1625 -63.6237 138° Southeast  Level FlightAware Approximate
04:04AM -6.2600 -63.5356 138° Southeast  Level FlightAware Approximate
04:05AM -6.3573 -63.4475 138° Southeast  Level FlightAware Approximate
04:06AM -6.4547 -63.3593 138° Southeast  Level FlightAware Approximate
04:07AM -6.5521 -63.2711 138° Southeast  Level FlightAware Approximate
04:08AM -6.6494 -63.1829 138° Southeast  Level FlightAware Approximate
04:09AM -6.7467 -63.0947 138° Southeast  Level FlightAware Approximate
04:10AM -6.8440 -63.0064 138° Southeast  Level FlightAware Approximate
04:11AM -6.9413 -62.9180 138° Southeast  Level FlightAware Approximate
04:12AM -7.0386 -62.8297 138° Southeast  Level FlightAware Approximate
04:13AM -7.1358 -62.7413 138° Southeast  Level FlightAware Approximate
04:14AM -7.2331 -62.6528 138° Southeast  Level FlightAware Approximate
04:15AM -7.3303 -62.5643 138° Southeast  Level FlightAware Approximate
04:16AM -7.4275 -62.4758 138° Southeast  Level FlightAware Approximate
04:17AM -7.5247 -62.3873 138° Southeast  Level FlightAware Approximate
04:18AM -7.6219 -62.2987 138° Southeast  Level FlightAware Approximate
04:19AM -7.7190 -62.2100 138° Southeast  Level FlightAware Approximate
04:20AM -7.8162 -62.1213 138° Southeast  Level FlightAware Approximate
04:21AM -7.9133 -62.0326 138° Southeast  Level FlightAware Approximate
04:22AM -8.0104 -61.9439 138° Southeast  Level FlightAware Approximate
04:23AM -8.1075 -61.8551 138° Southeast  Level FlightAware Approximate
04:24AM -8.2045 -61.7662 138° Southeast  Level FlightAware Approximate
04:25AM -8.3016 -61.6773 138° Southeast  Level FlightAware Approximate
04:26AM -8.3986 -61.5884 138° Southeast  Level FlightAware Approximate
04:27AM -8.4956 -61.4994 138° Southeast  Level FlightAware Approximate
04:28AM -8.5926 -61.4104 138° Southeast  Level FlightAware Approximate
04:29AM -8.6895 -61.3213 138° Southeast  Level FlightAware Approximate
04:30AM -8.7865 -61.2322 138° Southeast  Level FlightAware Approximate
04:31AM -8.8834 -61.1430 138° Southeast  Level FlightAware Approximate
04:32AM -8.9803 -61.0538 138° Southeast  Level FlightAware Approximate
04:33AM -9.0772 -60.9646 138° Southeast  Level FlightAware Approximate
04:34AM -9.1740 -60.8753 138° Southeast  Level FlightAware Approximate
04:35AM -9.2709 -60.7859 138° Southeast  Level FlightAware Approximate
04:36AM -9.3677 -60.6965 138° Southeast  Level FlightAware Approximate
04:37AM -9.4645 -60.6071 138° Southeast  Level FlightAware Approximate
04:38AM -9.5612 -60.5176 138° Southeast  Level FlightAware Approximate
04:39AM -9.6580 -60.4280 138° Southeast  Level FlightAware Approximate
04:40AM -9.7547 -60.3384 138° Southeast  Level FlightAware Approximate
04:41AM -9.8514 -60.2487 138° Southeast  Level FlightAware Approximate
04:42AM -9.9481 -60.1590 138° Southeast  Level FlightAware Approximate
04:43AM -10.0447 -60.0693 138° Southeast  Level FlightAware Approximate
04:44AM -10.1413 -59.9795 138° Southeast  Level FlightAware Approximate
04:45AM -10.2379 -59.8896 138° Southeast  Level FlightAware Approximate
04:46AM -10.3345 -59.7996 138° Southeast  Level FlightAware Approximate
04:47AM -10.4311 -59.7097 137° Southeast  Level FlightAware Approximate
04:48AM -10.5274 -59.6198 137° Southeast  Level FlightAware Approximate
04:49AM -10.6238 -59.5299 137° Southeast  Level FlightAware Approximate
04:50AM -10.7201 -59.4399 137° Southeast  Level FlightAware Approximate
04:51AM -10.8163 -59.3498 137° Southeast  Level FlightAware Approximate
04:52AM -10.9126 -59.2597 137° Southeast  Level FlightAware Approximate
04:53AM -11.0088 -59.1695 137° Southeast  Level FlightAware Approximate
04:54AM -11.1050 -59.0793 137° Southeast  Level FlightAware Approximate
04:55AM -11.2012 -58.9890 137° Southeast  Level FlightAware Approximate
04:56AM -11.2973 -58.8987 137° Southeast  Level FlightAware Approximate
04:57AM -11.3935 -58.8083 137° Southeast  Level FlightAware Approximate
04:58AM -11.4896 -58.7178 137° Southeast  Level FlightAware Approximate
04:59AM -11.5856 -58.6273 137° Southeast  Level FlightAware Approximate
05:00AM -11.6817 -58.5367 137° Southeast  Level FlightAware Approximate
05:01AM -11.7777 -58.4460 137° Southeast  Level FlightAware Approximate
05:02AM -11.8736 -58.3553 137° Southeast  Level FlightAware Approximate
05:03AM -11.9696 -58.2645 137° Southeast  Level FlightAware Approximate
05:04AM -12.0655 -58.1737 137° Southeast  Level FlightAware Approximate
05:05AM -12.1614 -58.0827 137° Southeast  Level FlightAware Approximate
05:06AM -12.2573 -57.9918 137° Southeast  Level FlightAware Approximate
05:07AM -12.3531 -57.9007 137° Southeast  Level FlightAware Approximate
05:08AM -12.4489 -57.8096 137° Southeast  Level FlightAware Approximate
05:09AM -12.5447 -57.7184 137° Southeast  Level FlightAware Approximate
05:10AM -12.6404 -57.6272 137° Southeast  Level FlightAware Approximate
05:11AM -12.7361 -57.5359 137° Southeast  Level FlightAware Approximate
05:12AM -12.8318 -57.4445 137° Southeast  Level FlightAware Approximate
05:13AM -12.9275 -57.3531 137° Southeast  Level FlightAware Approximate
05:14AM -13.0231 -57.2615 137° Southeast  Level FlightAware Approximate
05:15AM -13.1186 -57.1699 137° Southeast  Level FlightAware Approximate
05:16AM -13.2142 -57.0783 137° Southeast  Level FlightAware Approximate
05:17AM -13.3097 -56.9866 137° Southeast  Level FlightAware Approximate
05:18AM -13.4052 -56.8947 137° Southeast  Level FlightAware Approximate
05:19AM -13.5006 -56.8029 137° Southeast  Level FlightAware Approximate
05:20AM -13.5961 -56.7109 137° Southeast  Level FlightAware Approximate
05:21AM -13.6916 -56.6187 137° Southeast  Level FlightAware Approximate
05:22AM -13.7871 -56.5265 137° Southeast  Level FlightAware Approximate
05:23AM -13.8826 -56.4341 137° Southeast  Level FlightAware Approximate
05:24AM -13.9781 -56.3417 137° Southeast  Level FlightAware Approximate
05:25AM -14.0735 -56.2492 137° Southeast  Level FlightAware Approximate
05:26AM -14.1688 -56.1567 137° Southeast  Level FlightAware Approximate
05:27AM -14.2642 -56.0640 137° Southeast  Level FlightAware Approximate
05:28AM -14.3595 -55.9713 137° Southeast  Level FlightAware Approximate
05:29AM -14.4548 -55.8785 137° Southeast  Level FlightAware Approximate
05:30AM -14.5500 -55.7856 137° Southeast  Level FlightAware Approximate
05:31AM -14.6452 -55.6926 137° Southeast  Level FlightAware Approximate
05:32AM -14.7404 -55.5996 137° Southeast  Level FlightAware Approximate
05:33AM -14.8355 -55.5065 137° Southeast  Level FlightAware Approximate
05:34AM -14.9306 -55.4132 137° Southeast  Level FlightAware Approximate
05:35AM -15.0256 -55.3200 137° Southeast  Level FlightAware Approximate
05:36AM -15.1206 -55.2266 137° Southeast  Level FlightAware Approximate
05:37AM -15.2156 -55.1331 136° Southeast  Level FlightAware Approximate
05:38AM -15.3105 -55.0396 136° Southeast  Level FlightAware Approximate
05:39AM -15.4054 -54.9460 136° Southeast  Level FlightAware Approximate
05:40AM -15.5003 -54.8522 136° Southeast  Level FlightAware Approximate
05:41AM -15.5951 -54.7584 136° Southeast  Level FlightAware Approximate
05:42AM -15.6898 -54.6646 136° Southeast  Level FlightAware Approximate
05:43AM -15.7846 -54.5706 136° Southeast  Level FlightAware Approximate
05:44AM -15.8793 -54.4765 136° Southeast  Level FlightAware Approximate
05:45AM -15.9739 -54.3824 136° Southeast  Level FlightAware Approximate
05:46AM -16.0685 -54.2882 136° Southeast  Level FlightAware Approximate
05:47AM -16.1631 -54.1938 136° Southeast  Level FlightAware Approximate
05:48AM -16.2576 -54.0994 136° Southeast  Level FlightAware Approximate
05:49AM -16.3521 -54.0049 136° Southeast  Level FlightAware Approximate
05:50AM -16.4466 -53.9103 136° Southeast  Level FlightAware Approximate
05:51AM -16.5410 -53.8156 136° Southeast  Level FlightAware Approximate
05:52AM -16.6353 -53.7208 136° Southeast  Level FlightAware Approximate
05:53AM -16.7296 -53.6259 136° Southeast  Level FlightAware Approximate
05:54AM -16.8239 -53.5310 136° Southeast  Level FlightAware Approximate
05:55AM -16.9181 -53.4359 136° Southeast  Level FlightAware Approximate
05:56AM -17.0123 -53.3407 136° Southeast  Level FlightAware Approximate
05:57AM -17.1065 -53.2455 136° Southeast  Level FlightAware Approximate
05:58AM -17.2006 -53.1501 136° Southeast  Level FlightAware Approximate
05:59AM -17.2946 -53.0547 136° Southeast  Level FlightAware Approximate
06:00AM -17.3886 -52.9591 136° Southeast  Level FlightAware Approximate
06:01AM -17.4826 -52.8635 136° Southeast  Level FlightAware Approximate
06:02AM -17.5765 -52.7677 136° Southeast  Level FlightAware Approximate
06:03AM -17.6704 -52.6719 136° Southeast  Level FlightAware Approximate
06:04AM -17.7642 -52.5760 136° Southeast  Level FlightAware Approximate
06:05AM -17.8580 -52.4799 136° Southeast  Level FlightAware Approximate
06:06AM -17.9517 -52.3838 136° Southeast  Level FlightAware Approximate
06:07AM -18.0454 -52.2875 136° Southeast  Level FlightAware Approximate
06:08AM -18.1390 -52.1912 136° Southeast  Level FlightAware Approximate
06:09AM -18.2326 -52.0947 136° Southeast  Level FlightAware Approximate
06:10AM -18.3262 -51.9981 136° Southeast  Level FlightAware Approximate
06:11AM -18.4196 -51.9015 136° Southeast  Level FlightAware Approximate
06:12AM -18.5131 -51.8047 136° Southeast  Level FlightAware Approximate
06:13AM -18.6065 -51.7079 135° Southeast  Level FlightAware Approximate
06:14AM -18.6998 -51.6109 135° Southeast  Level FlightAware Approximate
06:14AM -19.0500 -50.6170 135° Southeast 490 564 35,000  Level FlightAware
06:15AM -18.7931 -51.5138 135° Southeast  Level FlightAware Approximate
06:15AM -19.1020 -50.5590 133° Southeast 490 564 35,000  Level FlightAware
06:15AM -19.1600 -50.4960 134° Southeast 490 564 35,000  Level FlightAware
06:16AM -19.2170 -50.4340 134° Southeast 490 564 35,000  Level FlightAware
06:16AM -19.2680 -50.3780 134° Southeast 491 565 35,000  Level FlightAware
06:17AM -19.3240 -50.3160 134° Southeast 492 566 35,000  Level FlightAware
06:17AM -19.3810 -50.2540 134° Southeast 492 566 35,000  Level FlightAware
06:18AM -19.4380 -50.1910 134° Southeast 492 566 35,000  Level FlightAware
06:19AM -19.4890 -50.1350 134° Southeast 492 566 35,000  Level FlightAware
06:19AM -19.5550 -50.0620 134° Southeast 492 566 35,000  Level FlightAware
06:20AM -19.6090 -50.0030 134° Southeast 492 566 35,000  Level FlightAware
06:21AM -19.6670 -49.9390 134° Southeast 492 566 35,000  Level FlightAware
06:21AM -19.7240 -49.8770 134° Southeast 492 566 35,000  Level FlightAware
06:22AM -19.7750 -49.8210 134° Southeast 493 567 35,000  Level FlightAware
06:22AM -19.8350 -49.7560 134° Southeast 493 567 35,000  Level FlightAware
06:23AM -19.8940 -49.6910 134° Southeast 495 570 35,000  Level FlightAware
06:23AM -19.9440 -49.6360 134° Southeast 495 570 35,000  Level FlightAware
06:24AM -20.0010 -49.5740 134° Southeast 496 571 35,000  Level FlightAware
06:25AM -20.0560 -49.5130 134° Southeast 497 572 35,000  Level FlightAware
06:25AM -20.1130 -49.4500 134° Southeast 498 573 35,000  Level FlightAware
06:26AM -20.1650 -49.3930 134° Southeast 499 574 35,000  Level FlightAware
06:26AM -20.2300 -49.3220 134° Southeast 500 575 35,000  Level FlightAware
06:27AM -20.2810 -49.2660 134° Southeast 500 575 35,000  Level FlightAware
06:28AM -20.3390 -49.2010 134° Southeast 500 575 35,000  Level FlightAware
06:28AM -20.3960 -49.1390 134° Southeast 500 575 35,000  Level FlightAware
06:29AM -20.4550 -49.0730 134° Southeast 501 577 35,000  Level FlightAware
06:29AM -20.5030 -49.0200 134° Southeast 502 578 35,000  Level FlightAware
06:30AM -20.5650 -48.9510 134° Southeast 502 578 35,000  Level FlightAware
06:30AM -20.6220 -48.8880 134° Southeast 502 578 35,000  Level FlightAware
06:31AM -20.6730 -48.8310 134° Southeast 502 578 35,000  Level FlightAware
06:32AM -20.7320 -48.7650 134° Southeast 502 578 35,000  Level FlightAware
06:32AM -20.7900 -48.7000 134° Southeast 504 580 35,000  Level FlightAware
06:33AM -20.8480 -48.6350 134° Southeast 503 579 35,000  Level FlightAware
06:33AM -20.8990 -48.5780 134° Southeast 503 579 35,000  Level FlightAware
06:34AM -20.9560 -48.5140 134° Southeast 504 580 35,000  Level FlightAware
06:35AM -21.0140 -48.4480 133° Southeast 505 581 35,000  Level FlightAware
06:35AM -21.0700 -48.3850 134° Southeast 505 581 35,000  Level FlightAware
06:36AM -21.1220 -48.3270 134° Southeast 504 580 35,000  Level FlightAware
06:36AM -21.1810 -48.2600 133° Southeast 502 578 35,000  Level FlightAware
06:37AM -21.2380 -48.1950 133° Southeast 503 579 35,000  Level FlightAware
06:37AM -21.2950 -48.1310 134° Southeast 503 579 35,000  Level FlightAware
06:38AM -21.3500 -48.0680 133° Southeast 503 579 35,000  Level FlightAware
06:39AM -21.4040 -48.0070 134° Southeast 502 578 35,000  Level FlightAware
06:39AM -21.4620 -47.9410 133° Southeast 502 578 35,000  Level FlightAware
06:40AM -21.5150 -47.8810 134° Southeast 502 578 35,000  Level FlightAware
06:40AM -21.5710 -47.8180 134° Southeast 501 577 35,000  Level FlightAware
06:41AM -21.6280 -47.7530 133° Southeast 501 577 35,000  Level FlightAware
06:42AM -21.6850 -47.6880 133° Southeast 499 574 35,000  Level FlightAware
06:42AM -21.7410 -47.6310 137° Southeast 488 562 35,000 -780 Level FlightAware
06:43AM -21.8120 -47.5880 151° Southeast 481 554 34,100 -1,800 Descending FlightAware
06:43AM -21.8810 -47.5460 151° Southeast 475 547 32,800 -2,220 Descending FlightAware
06:44AM -21.9380 -47.5090 149° Southeast 471 542 31,700 -2,220 Descending FlightAware
06:44AM -22.0070 -47.4620 148° Southeast 465 535 30,400 -2,040 Descending FlightAware
06:45AM -22.0730 -47.4180 148° Southeast 458 527 29,200 -2,100 Descending FlightAware
06:46AM -22.1340 -47.3790 149° Southeast 453 521 28,000 -2,160 Descending FlightAware
06:46AM -22.1990 -47.3380 150° Southeast 448 516 26,800 -1,920 Descending FlightAware
06:47AM -22.2640 -47.2970 150° Southeast 442 509 25,700 -1,920 Descending FlightAware
06:47AM -22.3290 -47.2550 149° Southeast 436 502 24,500 -1,920 Descending FlightAware
06:48AM -22.3840 -47.2210 150° Southeast 433 498 23,500 -1,860 Descending FlightAware
06:49AM -22.4460 -47.1810 149° Southeast 427 491 22,400 -1,860 Descending FlightAware
06:49AM -22.5080 -47.1420 150° Southeast 422 486 21,300 -1,860 Descending FlightAware
06:50AM -22.5690 -47.1040 150° Southeast 415 478 20,200 -1,860 Descending FlightAware
06:50AM -22.6210 -47.0790 156° South 409 471 19,300 -1,800 Descending FlightAware
06:51AM -22.6810 -47.0540 159° South 402 463 18,300 -1,800 Descending FlightAware
06:51AM -22.7500 -47.0250 159° South 396 456 17,100 -1,740 Descending FlightAware
06:52AM -22.8120 -46.9990 159° South 389 448 16,100 -1,680 Descending FlightAware
06:53AM -22.8650 -46.9770 159° South 383 441 15,200 -1,740 Descending FlightAware
06:53AM -22.9250 -46.9510 158° South 379 436 14,100 -1,800 Descending FlightAware
06:54AM -22.9830 -46.9270 159° South 375 432 13,100 -1,620 Descending FlightAware
06:54AM -23.0390 -46.9040 159° South 344 396 12,200 -1,500 Descending FlightAware
06:55AM -23.0850 -46.8840 158° South 328 377 11,400 -1,500 Descending FlightAware
06:56AM -23.1360 -46.8630 159° South 326 375 10,500 -1,320 Descending FlightAware
06:56AM -23.1750 -46.8460 158° South 315 362 10,000 -1,140 Descending FlightAware
06:56AM -23.2020 -46.8350 159° South 306 352 9,600 -1,260 Descending FlightAware
06:57AM -23.2330 -46.8220 159° South 300 345 9,100 -1,260 Descending FlightAware
06:57AM -23.2590 -46.8110 159° South 294 338 8,700 -1,200 Descending FlightAware
06:57AM -23.2840 -46.8000 158° South 285 328 8,300 -1,080 Descending FlightAware
06:58AM -23.3080 -46.7900 159° South 268 308 8,000 -1,020 Descending FlightAware
06:58AM -23.3320 -46.7800 159° South 255 293 7,600 -1,140 Descending FlightAware
06:58AM -23.3570 -46.7690 158° South 252 290 7,200 -960 Descending FlightAware
06:59AM -23.3730 -46.7600 153° Southeast 247 284 7,000 -1,080 Descending FlightAware
06:59AM -23.3900 -46.7460 143° Southeast 244 281 6,600 -1,440 Descending FlightAware
06:59AM -23.4070 -46.7310 141° Southeast 246 283 6,100 -1,320 Descending FlightAware
07:00AM -23.4260 -46.7130 139° Southeast 244 281 5,700 -1,200 Descending FlightAware
07:00AM -23.4450 -46.6930 136° Southeast 236 272 5,200 -1,200 Descending FlightAware
07:00AM -23.4520 -46.6820 125° Southeast 225 259 5,000 -540 Descending FlightAware
07:01AM -23.4570 -46.6710 116° Southeast 213 245 5,000 -360 Level FlightAware
07:01AM -23.4670 -46.6480 115° Southeast 205 236 4,800 -420 Descending FlightAware
07:01AM -23.4740 -46.6290 112° Southeast 196 226 4,700 -480 Descending FlightAware
07:01AM -23.4740 -46.6240 90° East 190 219 4,600 -480 Descending FlightAware
07:02AM -23.4700 -46.6030 78° East 181 208 4,500 -600 Descending FlightAware
07:02AM -23.4650 -46.5860 72° East 175 201 4,200 -960 Descending FlightAware
07:02AM -23.4600 -46.5660 75° East 161 185 3,800 -960 Descending FlightAware
07:03AM -23.4560 -46.5510 74° East 155 178 3,500 -780 Descending FlightAware
07:03AM -23.4520 -46.5350 75° East 156 180 3,300 -780 Descending FlightAware
07:03AM -23.4480 -46.5210 73° East 155 178 3,000 -840 Descending FlightAware
07:04AM -23.4430 -46.5030 73° East 150 173 2,700 -720 Descending FlightAware
07:04AM -23.4410 -46.4960 73° East 151 174 2,600 -240 Descending FlightAware
07:04AM -23.4410 -46.4930 90° East 152 175 2,600  Level FlightAware
07:05AM -23.4360 -46.4770 71° East 152 175 2,600  Level FlightAware